Time;durP1;ratioP1;P1;durP2;ratioP2;P2;SDS_P1;SDS_P2;PMS_P1;PMS_P2;Temp;Humidity;BMP_temperature;BMP_pressure;BME280_temperature;BME280_humidity;BME280_pressure;Samples;Min_cycle;Max_cycle;Signal;HPM_P1;HPM_P2
2022/01/01 00:02:23;;;;;;;14.50;7.37;;;13.10;97.30;;;;;;5063742;28;20211;-81
2022/01/01 00:04:49;;;;;;;18.23;9.77;;;13.10;97.30;;;;;;5064971;28;20493;-81
2022/01/01 00:07:16;;;;;;;18.00;9.23;;;13.10;97.30;;;;;;5043585;28;20908;-81
2022/01/01 00:12:10;;;;;;;20.17;9.40;;;13.10;97.30;;;;;;5029151;28;20471;-84
2022/01/01 00:14:36;;;;;;;15.47;8.70;;;13.10;97.30;;;;;;5013908;28;20462;-84
2022/01/01 00:17:03;;;;;;;12.40;7.40;;;13.10;97.30;;;;;;5032255;28;20441;-83
2022/01/01 00:19:31;;;;;;;14.07;7.80;;;13.10;97.30;;;;;;5023367;28;20436;-84
2022/01/01 00:21:57;;;;;;;13.53;6.90;;;13.10;97.30;;;;;;4995392;28;20417;-84
2022/01/01 00:24:23;;;;;;;13.77;6.80;;;13.10;97.30;;;;;;4995165;28;20429;-84
2022/01/01 00:26:48;;;;;;;15.30;8.40;;;13.10;97.30;;;;;;4994590;28;20462;-84
2022/01/01 00:29:14;;;;;;;11.43;6.53;;;13.10;97.30;;;;;;4980140;28;20604;-83
2022/01/01 00:31:39;;;;;;;12.43;6.80;;;13.10;97.30;;;;;;4977288;28;20269;-84
2022/01/01 00:34:05;;;;;;;18.13;6.50;;;13.00;97.30;;;;;;4994579;28;20177;-84
2022/01/01 00:36:31;;;;;;;14.30;6.80;;;13.00;97.30;;;;;;4994714;28;20563;-84
2022/01/01 00:38:57;;;;;;;14.17;6.57;;;13.00;97.30;;;;;;4994721;28;20651;-84
2022/01/01 00:41:22;;;;;;;10.00;5.70;;;13.00;97.30;;;;;;4994543;28;20463;-83
2022/01/01 00:43:48;;;;;;;11.87;5.27;;;13.00;97.30;;;;;;4994361;28;20217;-84
2022/01/01 00:46:14;;;;;;;14.43;7.20;;;13.00;97.30;;;;;;5011601;28;20218;-85
2022/01/01 00:48:39;;;;;;;9.17;5.00;;;13.00;97.30;;;;;;4994281;28;20567;-84
2022/01/01 00:51:04;;;;;;;10.50;5.70;;;13.10;97.30;;;;;;4994619;28;20673;-84
2022/01/01 00:53:30;;;;;;;12.10;5.30;;;13.00;97.30;;;;;;4994068;28;20185;-84
2022/01/01 00:55:56;;;;;;;9.67;5.40;;;13.00;97.30;;;;;;4994434;28;20299;-84
2022/01/01 00:58:22;;;;;;;10.30;5.60;;;13.00;97.30;;;;;;4994532;28;20512;-84
2022/01/01 01:00:47;;;;;;;9.43;5.07;;;13.00;97.30;;;;;;4993634;28;20209;-84
2022/01/01 01:03:15;;;;;;;10.30;5.90;;;13.00;97.30;;;;;;4993912;28;20268;-85
2022/01/01 01:05:43;;;;;;;10.63;5.27;;;13.00;97.30;;;;;;4998560;28;20189;-85
2022/01/01 01:08:10;;;;;;;10.40;4.87;;;13.00;97.30;;;;;;4993710;28;20440;-84
2022/01/01 01:10:37;;;;;;;8.90;4.70;;;13.00;97.30;;;;;;4994017;28;20479;-84
2022/01/01 01:13:03;;;;;;;10.10;5.60;;;13.00;97.30;;;;;;5011866;28;20432;-84
2022/01/01 01:15:30;;;;;;;8.73;4.57;;;13.00;97.30;;;;;;4994404;28;20495;-83
2022/01/01 01:17:57;;;;;;;7.77;4.73;;;13.10;97.30;;;;;;4993988;28;20460;-84
2022/01/01 01:20:24;;;;;;;8.53;5.13;;;13.10;97.30;;;;;;4994015;28;20444;-84
2022/01/01 01:22:49;;;;;;;10.57;5.10;;;13.10;97.30;;;;;;4994097;28;20421;-84
2022/01/01 01:25:15;;;;;;;10.40;5.50;;;13.00;97.30;;;;;;4994014;28;20436;-84
2022/01/01 01:27:41;;;;;;;7.93;4.53;;;13.00;97.30;;;;;;4993398;28;20181;-84
2022/01/01 01:30:10;;;;;;;8.90;5.30;;;13.00;97.30;;;;;;5011080;28;20841;-84
2022/01/01 01:32:37;;;;;;;10.77;5.07;;;13.00;97.30;;;;;;5011011;28;20184;-84
2022/01/01 01:35:04;;;;;;;10.27;5.27;;;13.00;97.30;;;;;;4999517;28;20457;-83
2022/01/01 01:37:29;;;;;;;9.50;4.73;;;13.00;97.30;;;;;;4993487;28;20439;-84
2022/01/01 01:39:58;;;;;;;8.90;5.10;;;13.00;97.30;;;;;;4993744;28;20440;-84
2022/01/01 01:42:27;;;;;;;11.40;5.33;;;13.00;97.30;;;;;;4993059;28;20181;-84
2022/01/01 01:44:53;;;;;;;7.20;4.57;;;13.00;97.30;;;;;;4993197;28;20431;-84
2022/01/01 01:47:28;;;;;;;10.17;4.93;;;13.00;97.30;;;;;;4994136;28;20429;-84
2022/01/01 01:49:54;;;;;;;9.20;5.17;;;13.00;97.30;;;;;;4993707;28;20458;-84
2022/01/01 01:52:20;;;;;;;7.70;5.43;;;13.10;97.30;;;;;;4993307;28;20925;-84
2022/01/01 01:54:47;;;;;;;10.53;5.60;;;13.00;97.30;;;;;;4993314;28;20463;-84
2022/01/01 01:57:13;;;;;;;9.97;5.97;;;13.00;97.30;;;;;;4993683;28;20169;-84
2022/01/01 01:59:40;;;;;;;10.33;5.63;;;13.00;97.30;;;;;;5010876;28;20447;-84
2022/01/01 02:02:08;;;;;;;11.43;6.40;;;13.00;97.30;;;;;;4993384;28;20420;-84
2022/01/01 02:04:34;;;;;;;10.53;5.60;;;13.00;97.30;;;;;;4993612;28;20490;-84
2022/01/01 02:07:00;;;;;;;11.90;5.83;;;13.00;97.30;;;;;;4994117;28;20420;-84
2022/01/01 02:09:26;;;;;;;9.27;6.47;;;13.00;97.30;;;;;;5011053;28;20201;-84
2022/01/01 02:11:53;;;;;;;12.03;5.43;;;13.00;97.30;;;;;;4992619;28;20522;-84
2022/01/01 02:14:33;;;;;;;12.00;5.60;;;13.00;97.30;;;;;;4993128;28;20173;-84
2022/01/01 02:19:26;;;;;;;12.27;5.10;;;13.00;97.30;;;;;;5014523;28;20456;-84
2022/01/01 02:21:53;;;;;;;11.83;5.40;;;13.00;97.30;;;;;;5004304;28;20235;-84
2022/01/01 02:24:20;;;;;;;14.40;4.67;;;13.00;97.30;;;;;;5021697;28;20447;-84
2022/01/01 02:26:45;;;;;;;7.47;4.77;;;13.00;97.30;;;;;;5003888;28;20458;-84
2022/01/01 02:29:11;;;;;;;12.03;4.90;;;13.00;97.30;;;;;;5001261;28;20452;-84
2022/01/01 02:31:36;;;;;;;9.90;4.47;;;13.00;97.30;;;;;;5011499;28;20181;-84
2022/01/01 02:34:06;;;;;;;9.07;4.53;;;13.00;97.30;;;;;;4988221;28;20186;-84
2022/01/01 02:36:35;;;;;;;10.97;4.40;;;13.00;97.30;;;;;;4984912;28;20208;-84
2022/01/01 02:39:01;;;;;;;9.43;4.40;;;13.00;97.30;;;;;;4993604;28;21037;-84
2022/01/01 02:41:27;;;;;;;6.73;4.37;;;13.00;97.30;;;;;;4992860;28;20450;-84
2022/01/01 02:43:53;;;;;;;9.23;4.60;;;12.90;97.30;;;;;;4992827;28;20946;-84
2022/01/01 02:46:19;;;;;;;7.70;4.30;;;13.00;97.30;;;;;;5010830;28;20299;-84
2022/01/01 02:48:45;;;;;;;9.93;4.50;;;12.90;97.30;;;;;;4992634;28;20535;-84
2022/01/01 02:51:11;;;;;;;11.27;4.97;;;12.90;97.30;;;;;;4993142;28;20169;-83
2022/01/01 02:53:40;;;;;;;10.27;4.27;;;12.90;97.30;;;;;;4992637;28;20536;-84
2022/01/01 02:56:05;;;;;;;6.73;3.80;;;12.90;97.30;;;;;;4993319;28;20204;-84
2022/01/01 02:58:31;;;;;;;8.00;4.07;;;12.90;97.30;;;;;;4992647;28;20432;-84
2022/01/01 03:00:56;;;;;;;11.80;5.20;;;12.90;97.30;;;;;;5010273;28;20189;-84
2022/01/01 03:03:22;;;;;;;10.77;4.33;;;12.90;97.30;;;;;;4992743;28;20207;-84
2022/01/01 03:05:47;;;;;;;7.30;4.43;;;12.90;97.30;;;;;;4992953;28;20185;-84
2022/01/01 03:08:13;;;;;;;6.80;3.90;;;12.90;97.30;;;;;;4992516;28;20223;-84
2022/01/01 03:10:38;;;;;;;6.50;3.67;;;12.90;97.30;;;;;;4992774;28;20587;-84
2022/01/01 03:13:04;;;;;;;7.50;4.00;;;12.90;97.30;;;;;;4992251;28;20193;-84
2022/01/01 03:15:29;;;;;;;8.83;3.80;;;12.80;97.30;;;;;;4992246;28;20225;-84
2022/01/01 03:17:56;;;;;;;8.33;4.47;;;12.80;97.30;;;;;;4992372;28;20192;-84
2022/01/01 03:20:22;;;;;;;10.60;5.37;;;12.80;97.30;;;;;;4992682;28;20200;-84
2022/01/01 03:22:47;;;;;;;7.87;4.53;;;12.80;97.30;;;;;;4993187;28;20432;-84
2022/01/01 03:25:13;;;;;;;10.00;5.07;;;12.80;97.30;;;;;;4996080;28;20188;-84
2022/01/01 03:27:38;;;;;;;8.80;5.07;;;12.80;97.30;;;;;;4995642;28;20644;-84
2022/01/01 03:30:04;;;;;;;8.70;4.50;;;12.80;97.30;;;;;;4995779;28;20205;-85
2022/01/01 03:32:30;;;;;;;7.57;4.60;;;12.80;97.30;;;;;;4995442;28;20181;-84
2022/01/01 03:34:56;;;;;;;7.30;4.30;;;12.80;97.30;;;;;;5001949;28;20870;-84
2022/01/01 03:37:22;;;;;;;8.30;4.33;;;12.80;97.30;;;;;;4993386;28;20173;-84
2022/01/01 03:39:47;;;;;;;10.77;4.60;;;12.70;97.30;;;;;;4995560;28;20420;-84
2022/01/01 03:42:12;;;;;;;7.73;4.60;;;12.70;97.30;;;;;;4995968;28;20424;-84
2022/01/01 03:44:38;;;;;;;10.57;5.03;;;12.70;97.30;;;;;;4995670;28;20651;-84
2022/01/01 03:47:09;;;;;;;7.70;4.50;;;12.70;97.30;;;;;;4995901;28;20177;-84
2022/01/01 03:49:36;;;;;;;11.53;5.30;;;12.70;97.30;;;;;;4995645;28;20543;-84
2022/01/01 03:52:01;;;;;;;8.53;4.60;;;12.70;97.30;;;;;;4996217;28;20420;-83
2022/01/01 03:54:27;;;;;;;10.63;5.20;;;12.70;97.30;;;;;;4995152;28;20451;-84
2022/01/01 03:56:52;;;;;;;9.30;5.00;;;12.70;97.30;;;;;;4995494;28;20777;-84
2022/01/01 03:59:20;;;;;;;9.17;5.07;;;12.70;97.30;;;;;;4995360;28;20223;-84
2022/01/01 04:01:45;;;;;;;11.83;5.20;;;12.70;97.30;;;;;;4995354;28;20169;-84
2022/01/01 04:04:11;;;;;;;9.90;4.47;;;12.70;97.30;;;;;;4995410;28;20534;-85
2022/01/01 04:06:37;;;;;;;10.80;5.53;;;12.70;97.30;;;;;;4995465;28;20192;-84
2022/01/01 04:09:02;;;;;;;8.40;5.47;;;12.70;97.30;;;;;;4995239;28;20208;-84
2022/01/01 04:11:28;;;;;;;11.63;4.70;;;12.70;97.30;;;;;;4995385;28;20327;-83
2022/01/01 04:13:53;;;;;;;9.90;4.13;;;12.70;97.30;;;;;;5012766;28;20226;-84
2022/01/01 04:16:20;;;;;;;8.50;4.30;;;12.70;97.30;;;;;;4995240;28;20262;-83
2022/01/01 04:18:46;;;;;;;11.47;4.93;;;12.70;97.30;;;;;;4994947;28;20355;-83
2022/01/01 04:21:12;;;;;;;6.93;4.73;;;12.70;97.30;;;;;;4995026;28;20570;-84
2022/01/01 04:23:39;;;;;;;7.23;3.80;;;12.70;97.30;;;;;;4994759;28;20169;-84
2022/01/01 04:26:08;;;;;;;10.90;5.07;;;12.70;97.30;;;;;;4995030;28;20420;-84
2022/01/01 04:28:34;;;;;;;7.57;4.57;;;12.60;97.30;;;;;;4994784;28;20431;-84
2022/01/01 04:31:00;;;;;;;9.00;4.77;;;12.60;97.30;;;;;;5012475;28;20498;-84
2022/01/01 04:33:25;;;;;;;8.07;4.10;;;12.60;97.30;;;;;;5012298;28;20530;-84
2022/01/01 04:35:51;;;;;;;9.83;3.83;;;12.60;97.30;;;;;;4974867;28;20229;-84
2022/01/01 04:38:35;;;;;;;7.23;4.30;;;12.60;97.30;;;;;;4983040;28;20208;-84
2022/01/01 04:41:02;;;;;;;13.40;4.50;;;12.60;97.30;;;;;;4994939;28;20181;-84
2022/01/01 04:43:27;;;;;;;8.93;4.40;;;12.60;97.30;;;;;;5012442;28;20478;-84
2022/01/01 04:45:53;;;;;;;10.50;4.90;;;12.60;97.30;;;;;;4995136;28;20440;-84
2022/01/01 04:48:18;;;;;;;7.20;4.17;;;12.60;97.30;;;;;;4994952;28;20239;-84
2022/01/01 04:50:44;;;;;;;9.77;4.00;;;12.60;97.30;;;;;;4994807;28;20213;-84
2022/01/01 04:53:14;;;;;;;6.93;4.33;;;12.60;97.30;;;;;;4994535;28;20181;-84
2022/01/01 04:55:40;;;;;;;8.50;4.13;;;12.60;97.30;;;;;;4994985;28;20209;-84
2022/01/01 04:58:05;;;;;;;7.63;4.13;;;12.60;97.30;;;;;;4994464;28;20778;-84
2022/01/01 05:00:31;;;;;;;5.73;3.93;;;12.60;97.30;;;;;;4994101;28;20296;-84
2022/01/01 05:02:56;;;;;;;13.73;4.40;;;12.60;97.30;;;;;;4994084;28;20184;-83
2022/01/01 05:05:22;;;;;;;5.80;3.70;;;12.60;97.30;;;;;;4994066;28;20215;-84
2022/01/01 05:07:47;;;;;;;7.43;4.03;;;12.60;97.30;;;;;;4993937;28;20200;-84
2022/01/01 05:10:13;;;;;;;7.73;4.10;;;12.60;97.30;;;;;;4994157;28;20236;-84
2022/01/01 05:12:38;;;;;;;11.80;4.43;;;12.60;97.30;;;;;;4993756;28;20216;-85
2022/01/01 05:15:04;;;;;;;10.10;4.23;;;12.60;97.30;;;;;;4993695;28;20626;-84
2022/01/01 05:17:30;;;;;;;5.40;3.53;;;12.60;97.30;;;;;;4993876;28;20173;-84
2022/01/01 05:19:55;;;;;;;9.20;4.80;;;12.60;97.30;;;;;;4993795;28;20243;-84
2022/01/01 05:22:20;;;;;;;8.30;4.63;;;12.60;97.30;;;;;;4994323;28;20174;-84
2022/01/01 05:24:46;;;;;;;7.03;4.47;;;12.60;97.30;;;;;;4993349;28;20282;-84
2022/01/01 05:27:11;;;;;;;7.03;4.23;;;12.60;97.30;;;;;;4994022;28;20189;-84
2022/01/01 05:29:37;;;;;;;8.00;3.97;;;12.60;97.30;;;;;;4993602;28;20211;-84
2022/01/01 05:32:03;;;;;;;4.90;3.20;;;12.60;97.30;;;;;;5010880;28;20193;-84
2022/01/01 05:34:28;;;;;;;7.70;3.80;;;12.60;97.30;;;;;;4985874;28;20182;-84
2022/01/01 05:36:54;;;;;;;8.67;4.20;;;12.60;97.30;;;;;;4974859;28;20429;-84
2022/01/01 05:39:19;;;;;;;6.80;3.77;;;12.60;97.30;;;;;;4990620;28;20320;-84
2022/01/01 05:41:45;;;;;;;8.33;4.20;;;12.60;97.30;;;;;;4993819;28;20180;-84
2022/01/01 05:44:10;;;;;;;7.73;4.40;;;12.60;97.30;;;;;;4993725;28;20181;-84
2022/01/01 05:46:36;;;;;;;11.10;4.33;;;12.60;97.30;;;;;;4993529;28;20255;-84
2022/01/01 05:49:01;;;;;;;6.23;3.93;;;12.60;97.30;;;;;;4993290;28;20243;-84
2022/01/01 05:51:27;;;;;;;7.43;4.10;;;12.60;97.30;;;;;;4993856;28;20181;-84
2022/01/01 05:53:53;;;;;;;9.20;3.20;;;12.60;97.30;;;;;;4993784;28;20189;-84
2022/01/01 05:56:18;;;;;;;8.40;4.03;;;12.60;97.30;;;;;;4993345;28;20682;-84
2022/01/01 05:58:44;;;;;;;6.00;4.07;;;12.60;97.30;;;;;;5011171;28;20177;-84
2022/01/01 06:01:09;;;;;;;7.47;4.53;;;12.60;97.30;;;;;;4992865;28;20181;-83
2022/01/01 06:03:34;;;;;;;5.60;3.50;;;12.60;97.30;;;;;;4993320;28;20189;-84
2022/01/01 06:06:00;;;;;;;9.67;3.57;;;12.60;97.30;;;;;;5010630;28;20269;-84
2022/01/01 06:08:28;;;;;;;7.43;3.73;;;12.60;97.30;;;;;;4992934;28;20247;-84
2022/01/01 06:13:21;;;;;;;7.60;3.90;;;12.60;97.30;;;;;;5052146;28;20473;-81
2022/01/01 06:15:47;;;;;;;5.07;3.60;;;12.60;97.30;;;;;;5037982;28;20655;-82
2022/01/01 06:18:12;;;;;;;10.07;3.70;;;12.60;97.30;;;;;;5037879;28;20203;-82
2022/01/01 06:20:38;;;;;;;6.70;3.77;;;12.60;97.30;;;;;;5037650;28;20214;-81
2022/01/01 06:23:05;;;;;;;6.27;4.10;;;12.60;97.30;;;;;;5038681;28;20183;-82
2022/01/01 06:25:31;;;;;;;5.47;3.33;;;12.60;97.30;;;;;;5037691;28;20183;-82
2022/01/01 06:27:57;;;;;;;9.57;4.00;;;12.60;97.30;;;;;;5038225;28;20521;-82
2022/01/01 06:30:22;;;;;;;7.80;3.80;;;12.60;97.30;;;;;;5055943;28;20317;-82
2022/01/01 06:32:50;;;;;;;7.17;4.17;;;12.60;97.30;;;;;;5037981;28;20223;-81
2022/01/01 06:35:16;;;;;;;5.10;3.67;;;12.60;97.30;;;;;;5037165;28;20251;-81
2022/01/01 06:37:42;;;;;;;7.37;4.40;;;12.60;97.30;;;;;;5034923;28;20459;-81
2022/01/01 06:40:08;;;;;;;9.13;4.47;;;12.60;97.30;;;;;;5018075;28;20181;-81
2022/01/01 06:42:34;;;;;;;10.53;4.10;;;12.60;97.30;;;;;;5028355;28;20180;-81
2022/01/01 06:44:59;;;;;;;6.50;3.77;;;12.60;97.30;;;;;;5037510;28;20426;-81
2022/01/01 06:47:25;;;;;;;9.40;4.07;;;12.60;97.30;;;;;;5017324;28;20640;-81
2022/01/01 06:49:50;;;;;;;8.83;4.73;;;12.60;97.30;;;;;;5036758;28;20176;-81
2022/01/01 06:52:16;;;;;;;7.67;4.27;;;12.60;97.30;;;;;;5036006;28;20237;-81
2022/01/01 06:54:42;;;;;;;10.00;5.00;;;12.60;97.30;;;;;;5031069;28;20202;-81
2022/01/01 06:57:07;;;;;;;8.00;4.70;;;12.60;97.30;;;;;;5032985;28;20176;-81
2022/01/01 06:59:33;;;;;;;8.47;4.87;;;12.60;97.30;;;;;;5039921;28;20176;-82
2022/01/01 07:01:58;;;;;;;6.93;4.43;;;12.60;97.30;;;;;;5038389;28;20287;-81
2022/01/01 07:04:24;;;;;;;11.03;4.43;;;12.60;97.30;;;;;;5039431;28;20705;-79
2022/01/01 07:06:50;;;;;;;11.10;4.30;;;12.60;97.30;;;;;;5033449;28;20184;-79
2022/01/01 07:09:16;;;;;;;7.50;4.83;;;12.60;97.30;;;;;;5031503;28;20601;-80
2022/01/01 07:11:42;;;;;;;7.60;3.70;;;12.60;97.30;;;;;;5039705;28;20461;-82
2022/01/01 07:14:09;;;;;;;8.60;4.00;;;12.60;97.30;;;;;;5035587;28;20176;-79
2022/01/01 07:16:35;;;;;;;8.40;3.83;;;12.60;97.30;;;;;;5030718;28;20495;-80
2022/01/01 07:19:00;;;;;;;7.30;4.10;;;12.70;97.30;;;;;;5031346;28;20423;-81
2022/01/01 07:21:26;;;;;;;8.27;4.50;;;12.70;97.30;;;;;;5033943;28;20696;-80
2022/01/01 07:23:51;;;;;;;13.30;5.20;;;12.70;97.30;;;;;;5037521;28;20183;-81
2022/01/01 07:26:17;;;;;;;11.00;4.90;;;12.70;97.30;;;;;;5037482;28;20191;-80
2022/01/01 07:28:44;;;;;;;14.70;3.87;;;12.70;97.30;;;;;;5034955;28;20184;-80
2022/01/01 07:31:09;;;;;;;5.50;3.90;;;12.70;97.30;;;;;;5038014;28;20270;-80
2022/01/01 07:33:35;;;;;;;7.60;4.27;;;12.70;97.30;;;;;;5038735;28;20435;-80
2022/01/01 07:36:00;;;;;;;7.50;4.07;;;12.70;97.30;;;;;;5051782;28;20637;-80
2022/01/01 07:38:26;;;;;;;10.00;3.90;;;12.70;97.30;;;;;;5037879;28;20238;-81
2022/01/01 07:40:53;;;;;;;9.90;3.87;;;12.70;97.30;;;;;;5056873;28;20196;-81
2022/01/01 07:43:20;;;;;;;8.33;4.03;;;12.70;97.30;;;;;;5056237;28;20671;-83
2022/01/01 07:45:46;;;;;;;8.17;4.30;;;12.70;97.30;;;;;;5038065;28;20491;-82
2022/01/01 07:48:12;;;;;;;8.23;4.57;;;12.70;97.30;;;;;;5037636;28;20493;-82
2022/01/01 07:50:38;;;;;;;7.90;4.03;;;12.70;97.30;;;;;;5037061;28;20752;-83
2022/01/01 07:53:05;;;;;;;11.17;4.13;;;12.70;97.30;;;;;;5038507;28;20176;-82
2022/01/01 07:55:31;;;;;;;10.90;4.33;;;12.70;97.30;;;;;;5038972;28;20461;-82
2022/01/01 07:57:57;;;;;;;8.67;3.50;;;12.70;97.30;;;;;;5038480;28;20426;-82
2022/01/01 08:00:22;;;;;;;10.10;3.20;;;12.70;97.30;;;;;;5038499;28;21058;-83
2022/01/01 08:02:48;;;;;;;5.33;3.40;;;12.70;97.30;;;;;;5038333;28;20216;-80
2022/01/01 08:05:16;;;;;;;11.83;3.87;;;12.70;97.30;;;;;;5036720;28;20394;-80
2022/01/01 08:07:43;;;;;;;7.17;3.47;;;12.70;97.30;;;;;;5038108;28;20430;-82
2022/01/01 08:10:09;;;;;;;6.73;3.83;;;12.70;97.30;;;;;;5034411;28;20426;-80
2022/01/01 08:12:35;;;;;;;6.53;3.57;;;12.70;97.30;;;;;;5007456;28;1077416;-80
2022/01/01 08:15:03;;;;;;;7.27;4.07;;;12.70;97.30;;;;;;5057508;28;20196;-81
2022/01/01 08:17:28;;;;;;;6.40;3.47;;;12.70;97.30;;;;;;5035224;28;20461;-81
2022/01/01 08:19:54;;;;;;;8.37;4.30;;;12.70;97.30;;;;;;5039896;28;20419;-81
2022/01/01 08:22:19;;;;;;;8.70;4.27;;;12.70;97.30;;;;;;5039558;28;20188;-81
2022/01/01 08:24:46;;;;;;;8.70;4.17;;;12.70;97.30;;;;;;5039619;28;20183;-81
2022/01/01 08:27:11;;;;;;;12.60;3.73;;;12.70;97.30;;;;;;5035685;28;20586;-81
2022/01/01 08:29:37;;;;;;;4.50;3.40;;;12.70;97.30;;;;;;5035732;28;20426;-81
2022/01/01 08:32:03;;;;;;;8.47;3.67;;;12.70;97.30;;;;;;5038173;28;20211;-81
2022/01/01 08:34:29;;;;;;;8.13;4.37;;;12.70;97.30;;;;;;5044653;28;20229;-81
2022/01/01 08:36:54;;;;;;;8.80;5.10;;;12.80;97.30;;;;;;5039110;28;20427;-80
2022/01/01 08:39:20;;;;;;;9.40;4.00;;;12.70;97.30;;;;;;5039215;28;20179;-81
2022/01/01 08:41:47;;;;;;;7.33;3.87;;;12.80;97.30;;;;;;5037533;28;20344;-81
2022/01/01 08:44:13;;;;;;;6.73;4.07;;;12.80;97.30;;;;;;5037927;28;20633;-81
2022/01/01 08:46:39;;;;;;;8.97;5.07;;;12.80;97.30;;;;;;5055567;28;20934;-81
2022/01/01 08:49:05;;;;;;;5.97;3.60;;;12.80;97.30;;;;;;5037919;28;20426;-82
2022/01/01 08:51:36;;;;;;;9.57;4.67;;;12.80;97.30;;;;;;5038162;28;20199;-81
2022/01/01 08:54:02;;;;;;;11.43;4.60;;;12.80;97.30;;;;;;5038067;28;20433;-81
2022/01/01 08:56:29;;;;;;;11.30;5.17;;;12.80;97.30;;;;;;5038598;28;20510;-81
2022/01/01 08:58:54;;;;;;;9.87;5.20;;;12.80;97.30;;;;;;5038441;28;20943;-81
2022/01/01 09:01:20;;;;;;;7.10;3.80;;;12.80;97.30;;;;;;5038799;28;20449;-81
2022/01/01 09:03:46;;;;;;;12.93;4.73;;;12.80;97.30;;;;;;5038011;28;20680;-81
2022/01/01 09:06:12;;;;;;;7.23;4.10;;;12.80;97.30;;;;;;5038648;28;20716;-80
2022/01/01 09:08:39;;;;;;;5.33;3.80;;;12.80;97.30;;;;;;5037253;28;20425;-82
2022/01/01 09:11:06;;;;;;;6.50;4.10;;;12.80;97.30;;;;;;5034232;28;20280;-82
2022/01/01 09:13:32;;;;;;;5.83;3.57;;;12.80;97.30;;;;;;5037478;28;20534;-81
2022/01/01 09:15:58;;;;;;;9.67;4.60;;;12.80;97.30;;;;;;5037505;28;20508;-80
2022/01/01 09:18:24;;;;;;;8.57;4.30;;;12.80;97.30;;;;;;5036142;28;20797;-80
2022/01/01 09:20:49;;;;;;;8.30;3.73;;;12.90;97.30;;;;;;5035580;28;20455;-84
2022/01/01 09:23:16;;;;;;;7.47;3.97;;;12.90;97.30;;;;;;5037634;28;20446;-82
2022/01/01 09:25:42;;;;;;;14.70;4.00;;;12.90;97.30;;;;;;5037594;28;20184;-82
2022/01/01 09:28:08;;;;;;;9.20;4.30;;;12.90;97.30;;;;;;5038121;28;20415;-80
2022/01/01 09:30:34;;;;;;;8.63;3.90;;;12.90;97.30;;;;;;5037252;28;20273;-81
2022/01/01 09:32:59;;;;;;;8.67;3.70;;;12.90;97.30;;;;;;5037498;28;20430;-81
2022/01/01 09:35:25;;;;;;;8.13;3.93;;;12.90;97.30;;;;;;5043432;28;20271;-81
2022/01/01 09:37:51;;;;;;;9.73;4.10;;;12.90;97.30;;;;;;5054988;28;20267;-81
2022/01/01 09:40:17;;;;;;;13.23;4.43;;;12.90;97.30;;;;;;5055121;28;20253;-81
2022/01/01 09:42:44;;;;;;;8.97;3.83;;;12.90;97.30;;;;;;5056209;28;20179;-81
2022/01/01 09:45:10;;;;;;;9.03;3.83;;;12.90;97.30;;;;;;5037583;28;20430;-81
2022/01/01 09:47:37;;;;;;;8.10;4.40;;;12.90;97.30;;;;;;5037120;28;20461;-81
2022/01/01 09:50:06;;;;;;;10.50;4.30;;;12.90;97.30;;;;;;5055385;28;20818;-81
2022/01/01 09:52:32;;;;;;;7.50;4.40;;;13.00;97.30;;;;;;5037876;28;20441;-81
2022/01/01 09:54:59;;;;;;;6.47;3.57;;;13.00;97.30;;;;;;5037210;28;20462;-81
2022/01/01 09:57:24;;;;;;;7.97;3.73;;;13.00;97.30;;;;;;5037996;28;20494;-82
2022/01/01 09:59:50;;;;;;;9.67;4.70;;;13.00;97.30;;;;;;5037980;28;20464;-82
2022/01/01 10:02:15;;;;;;;10.13;5.13;;;13.00;97.30;;;;;;5036861;28;20222;-81
2022/01/01 10:04:43;;;;;;;10.93;4.87;;;13.00;97.30;;;;;;5036700;28;20268;-81
2022/01/01 10:07:12;;;;;;;10.10;4.30;;;13.00;97.30;;;;;;5034351;28;20710;-81
2022/01/01 10:09:38;;;;;;;13.90;3.90;;;13.10;97.30;;;;;;5047641;28;20481;-81
2022/01/01 10:12:06;;;;;;;9.10;4.60;;;13.10;97.30;;;;;;5032757;28;20529;-81
2022/01/01 10:14:39;;;;;;;6.90;3.77;;;13.10;97.30;;;;;;5032723;28;20419;-81
2022/01/01 10:17:13;;;;;;;9.60;4.50;;;13.10;97.30;;;;;;5032744;28;20431;-81
2022/01/01 10:19:40;;;;;;;7.50;3.77;;;13.10;97.30;;;;;;5033324;28;20404;-82
2022/01/01 10:22:12;;;;;;;6.60;3.80;;;13.10;97.30;;;;;;5032869;28;21015;-81
2022/01/01 10:27:45;;;;;;;11.90;3.80;;;13.10;97.30;;;;;;5033766;28;20430;-82
2022/01/01 10:30:17;;;;;;;9.53;4.23;;;13.20;97.30;;;;;;5034304;28;20388;-81
2022/01/01 10:33:08;;;;;;;6.40;4.40;;;13.20;97.30;;;;;;5026869;28;20455;-81
2022/01/01 10:35:44;;;;;;;8.67;3.30;;;13.20;97.30;;;;;;5036729;28;20455;-81
2022/01/01 10:38:30;;;;;;;10.10;4.13;;;13.20;97.30;;;;;;5032644;28;20963;-80
2022/01/01 10:41:09;;;;;;;7.00;4.33;;;13.20;97.30;;;;;;5030716;28;20984;-81
2022/01/01 10:43:41;;;;;;;10.00;3.87;;;13.20;97.30;;;;;;5031584;28;20454;-81
2022/01/01 10:46:10;;;;;;;10.90;4.00;;;13.20;97.30;;;;;;5034608;28;20438;-81
2022/01/01 10:51:04;;;;;;;5.77;3.47;;;13.20;97.30;;;;;;5038801;28;20474;-81
2022/01/01 10:53:30;;;;;;;9.13;4.07;;;13.20;97.30;;;;;;5032565;28;20208;-81
2022/01/01 10:56:00;;;;;;;14.53;4.30;;;13.20;97.30;;;;;;5031590;28;20559;-81
2022/01/01 10:58:29;;;;;;;6.10;3.70;;;13.20;97.30;;;;;;5026576;28;20433;-81
2022/01/01 11:01:00;;;;;;;12.17;4.87;;;13.30;97.30;;;;;;5035985;28;20439;-81
2022/01/01 11:03:27;;;;;;;9.73;3.50;;;13.30;97.30;;;;;;5034071;28;20438;-81
2022/01/01 11:06:10;;;;;;;10.60;3.80;;;13.30;97.30;;;;;;5032123;28;20419;-81
2022/01/01 11:08:39;;;;;;;7.10;4.23;;;13.30;97.30;;;;;;5037616;28;20403;-82
2022/01/01 11:11:05;;;;;;;9.83;4.03;;;13.30;97.30;;;;;;5032809;28;20956;-81
2022/01/01 11:13:34;;;;;;;9.17;3.60;;;13.30;97.30;;;;;;5045451;28;20484;-82
2022/01/01 11:16:02;;;;;;;10.70;4.50;;;13.30;97.30;;;;;;5041244;28;20595;-82
2022/01/01 11:18:27;;;;;;;13.37;4.17;;;13.30;97.30;;;;;;5038509;28;20414;-82
2022/01/01 11:20:53;;;;;;;9.20;3.83;;;13.30;97.30;;;;;;5041202;28;20426;-82
2022/01/01 11:23:20;;;;;;;7.33;3.53;;;13.30;97.30;;;;;;5040364;28;20215;-82
2022/01/01 11:25:46;;;;;;;13.50;3.60;;;13.30;97.30;;;;;;5054982;28;20775;-82
2022/01/01 11:28:14;;;;;;;12.43;4.60;;;13.40;97.30;;;;;;5037937;28;20426;-82
2022/01/01 11:30:52;;;;;;;14.60;4.83;;;13.30;97.30;;;;;;5039675;28;20249;-82
2022/01/01 11:33:25;;;;;;;9.03;4.30;;;13.40;97.30;;;;;;5058251;28;21013;-82
2022/01/01 11:35:55;;;;;;;12.57;4.20;;;13.40;97.30;;;;;;5039107;28;20470;-82
2022/01/01 11:38:21;;;;;;;8.63;4.10;;;13.40;97.30;;;;;;5042101;28;20418;-82
2022/01/01 11:41:03;;;;;;;10.63;4.33;;;13.40;97.30;;;;;;5059724;28;20426;-81
2022/01/01 11:43:35;;;;;;;11.07;4.90;;;13.40;97.30;;;;;;5040209;28;20789;-80
2022/01/01 11:46:10;;;;;;;14.57;4.50;;;13.40;97.30;;;;;;5051863;28;20438;-81
2022/01/01 11:48:36;;;;;;;12.70;5.00;;;13.40;97.30;;;;;;5059100;28;20512;-81
2022/01/01 11:51:38;;;;;;;10.53;4.80;;;13.40;97.30;;;;;;5041295;28;20430;-81
2022/01/01 11:54:27;;;;;;;16.90;5.40;;;13.40;97.30;;;;;;5042912;28;20449;-82
2022/01/01 11:57:10;;;;;;;14.80;6.20;;;13.40;97.30;;;;;;5032912;28;20835;-82
2022/01/01 11:59:40;;;;;;;8.87;4.37;;;13.40;97.30;;;;;;5058594;28;21168;-82
2022/01/01 12:02:12;;;;;;;11.07;6.03;;;13.40;97.30;;;;;;5038767;28;20976;-82
2022/01/01 12:04:42;;;;;;;8.40;3.87;;;13.40;97.30;;;;;;5048297;28;20427;-81
2022/01/01 12:07:20;;;;;;;11.23;4.70;;;13.40;97.30;;;;;;5035912;28;20446;-82
2022/01/01 12:09:54;;;;;;;12.17;5.43;;;13.40;97.30;;;;;;5029465;28;20447;-82
2022/01/01 12:12:35;;;;;;;19.47;7.67;;;13.40;97.30;;;;;;5042431;28;20555;-83
2022/01/01 12:15:01;;;;;;;14.47;5.40;;;13.40;97.30;;;;;;5041607;28;20458;-82
2022/01/01 12:17:26;;;;;;;11.17;5.47;;;13.40;97.30;;;;;;5059048;28;20456;-82
2022/01/01 12:19:55;;;;;;;8.70;4.30;;;13.40;97.30;;;;;;5040366;28;20675;-82
2022/01/01 12:22:25;;;;;;;10.57;4.70;;;13.40;97.30;;;;;;5039773;28;20199;-82
2022/01/01 12:24:53;;;;;;;9.90;4.83;;;13.40;97.30;;;;;;5039237;28;20481;-83
2022/01/01 12:27:19;;;;;;;8.03;4.77;;;13.40;97.30;;;;;;5041927;28;20950;-83
2022/01/01 12:29:45;;;;;;;11.00;4.90;;;13.50;97.30;;;;;;5040701;28;20421;-82
2022/01/01 12:32:10;;;;;;;18.17;4.83;;;13.50;97.30;;;;;;5039380;28;20446;-82
2022/01/01 12:34:37;;;;;;;13.10;4.87;;;13.50;97.30;;;;;;5031711;28;20172;-82
2022/01/01 12:37:12;;;;;;;10.07;4.10;;;13.50;97.30;;;;;;5039300;28;20621;-82
2022/01/01 12:40:02;;;;;;;15.77;4.77;;;13.50;97.30;;;;;;5057309;28;20402;-82
2022/01/01 12:42:35;;;;;;;8.17;4.27;;;13.40;97.30;;;;;;5030012;28;20489;-82
2022/01/01 12:45:14;;;;;;;17.37;5.30;;;13.50;97.30;;;;;;5037996;23;20488;-89
2022/01/01 12:47:43;;;;;;;10.23;5.07;;;13.40;97.30;;;;;;5012183;28;20412;-90
2022/01/01 12:50:23;;;;;;;10.57;4.93;;;13.50;97.30;;;;;;5012348;28;20412;-89
2022/01/01 12:53:02;;;;;;;11.93;4.50;;;13.50;97.30;;;;;;5014123;28;21228;-89
2022/01/01 12:55:34;;;;;;;10.97;4.80;;;13.50;97.30;;;;;;5025674;28;20451;-90
2022/01/01 12:58:23;;;;;;;10.43;5.17;;;13.50;97.30;;;;;;5033446;28;20431;-89